createdAt,value
2022-11-22T00:02:19.175Z,18.15
2022-11-22T00:05:41.147Z,14.43
2022-11-22T00:09:02.887Z,13.27
2022-11-22T00:12:25.010Z,15.18
2022-11-22T00:15:58.031Z,20.45
2022-11-22T00:19:19.805Z,12.90
2022-11-22T00:22:44.753Z,19.83
2022-11-22T00:26:12.140Z,12.00
2022-11-22T00:29:34.218Z,14.98
2022-11-22T00:32:57.415Z,12.27
2022-11-22T00:36:19.378Z,12.15
2022-11-22T00:39:41.550Z,20.48
2022-11-22T00:43:03.856Z,14.43
2022-11-22T00:46:25.681Z,16.45
2022-11-22T00:49:48.603Z,14.35
2022-11-22T00:53:10.652Z,17.67
2022-11-22T00:56:33.321Z,12.15
2022-11-22T00:59:55.090Z,16.33
2022-11-22T01:03:16.703Z,15.20
2022-11-22T01:06:40.226Z,16.90
2022-11-22T01:10:02.401Z,14.65
2022-11-22T01:13:24.529Z,13.65
2022-11-22T01:16:46.588Z,18.00
2022-11-22T01:20:10.277Z,19.90
2022-11-22T01:23:34.059Z,15.73
2022-11-22T01:26:56.907Z,15.75
2022-11-22T01:30:19.055Z,13.68
2022-11-22T01:33:43.652Z,11.45
2022-11-22T01:37:05.732Z,15.50
2022-11-22T01:40:29.316Z,14.45
2022-11-22T01:43:51.505Z,12.88
2022-11-22T01:47:15.500Z,13.15
2022-11-22T01:50:41.161Z,12.85
2022-11-22T01:54:07.109Z,10.68
2022-11-22T01:57:32.594Z,13.85
2022-11-22T02:00:59.838Z,14.27
2022-11-22T02:04:24.379Z,15.13
2022-11-22T02:07:53.166Z,17.60
2022-11-22T02:11:15.688Z,12.13
2022-11-22T02:14:41.688Z,9.30
2022-11-22T02:18:03.733Z,13.57
2022-11-22T02:21:25.933Z,12.35
2022-11-22T02:24:55.136Z,12.63
2022-11-22T02:28:18.699Z,12.60
2022-11-22T02:31:43.677Z,12.20
2022-11-22T02:35:20.376Z,12.27
2022-11-22T02:38:42.185Z,15.60
2022-11-22T02:42:06.461Z,12.50
2022-11-22T02:45:29.854Z,15.85
2022-11-22T02:48:52.016Z,10.68
2022-11-22T02:52:18.066Z,13.70
2022-11-22T02:55:40.076Z,9.45
2022-11-22T02:59:02.019Z,13.48
2022-11-22T03:02:25.508Z,17.73
2022-11-22T03:05:49.768Z,11.77
2022-11-22T03:09:12.003Z,10.45
2022-11-22T03:12:36.047Z,15.48
2022-11-22T03:15:57.822Z,13.52
2022-11-22T03:19:21.417Z,13.38
2022-11-22T03:22:43.522Z,14.48
2022-11-22T03:26:09.012Z,11.25
2022-11-22T03:29:30.936Z,11.60
2022-11-22T03:32:52.793Z,12.80
2022-11-22T03:36:15.666Z,15.98
2022-11-22T03:39:37.357Z,12.02
2022-11-22T03:43:01.729Z,13.60
2022-11-22T03:46:23.471Z,10.43
2022-11-22T03:49:45.139Z,11.48
2022-11-22T03:53:08.798Z,13.75
2022-11-22T03:56:30.809Z,15.48
2022-11-22T03:59:52.911Z,8.13
2022-11-22T04:03:15.037Z,12.95
2022-11-22T04:06:37.090Z,11.68
2022-11-22T04:10:00.690Z,13.68
2022-11-22T04:13:45.143Z,11.85
2022-11-22T04:17:06.007Z,12.80
2022-11-22T04:20:47.002Z,10.73
2022-11-22T04:24:28.202Z,7.65
2022-11-22T04:27:51.628Z,11.00
2022-11-22T04:31:31.328Z,12.15
2022-11-22T04:34:53.214Z,11.77
2022-11-22T04:38:15.839Z,9.40
2022-11-22T04:41:37.701Z,13.88
2022-11-22T04:44:59.986Z,13.68
2022-11-22T04:48:21.594Z,10.10
2022-11-22T04:52:03.550Z,9.18
2022-11-22T04:55:25.482Z,10.57
2022-11-22T04:58:47.156Z,14.52
2022-11-22T05:02:10.630Z,12.75
2022-11-22T05:05:35.630Z,10.68
2022-11-22T05:08:57.706Z,13.13
2022-11-22T05:12:22.774Z,10.00
2022-11-22T05:15:44.249Z,8.60
2022-11-22T05:19:08.050Z,10.77
2022-11-22T05:22:43.487Z,11.90
2022-11-22T05:26:06.154Z,9.43
2022-11-22T05:29:28.500Z,11.10
2022-11-22T05:32:50.221Z,11.18
2022-11-22T05:36:14.270Z,12.70
2022-11-22T05:39:36.364Z,12.07
2022-11-22T05:42:59.351Z,16.90
2022-11-22T05:46:25.084Z,14.43
2022-11-22T05:49:47.162Z,11.32
2022-11-22T05:53:10.594Z,11.00
2022-11-22T05:56:32.178Z,12.75
2022-11-22T05:59:57.170Z,8.82
2022-11-22T06:03:18.887Z,14.23
2022-11-22T06:06:41.066Z,14.35
2022-11-22T06:10:04.710Z,14.63
2022-11-22T06:13:26.863Z,11.52
2022-11-22T06:16:48.413Z,10.38
2022-11-22T06:20:11.208Z,12.30
2022-11-22T06:23:35.969Z,9.93
2022-11-22T06:26:59.283Z,9.57
2022-11-22T06:30:21.072Z,13.52
2022-11-22T06:33:44.013Z,9.90
2022-11-22T06:37:05.900Z,10.00
2022-11-22T06:40:29.918Z,10.00
2022-11-22T06:43:54.773Z,14.95
2022-11-22T06:47:17.687Z,11.98
2022-11-22T06:50:39.459Z,14.05
2022-11-22T06:54:01.762Z,8.85
2022-11-22T06:57:23.724Z,9.75
2022-11-22T07:00:47.469Z,16.08
2022-11-22T07:04:09.457Z,11.95
2022-11-22T07:07:31.744Z,11.27
2022-11-22T07:10:53.650Z,11.07
2022-11-22T07:14:16.104Z,12.38
2022-11-22T07:17:39.297Z,15.80
2022-11-22T07:21:12.170Z,15.25
2022-11-22T07:24:34.390Z,17.10
2022-11-22T07:27:56.373Z,11.85
2022-11-22T07:31:19.241Z,13.80
2022-11-22T07:34:42.520Z,14.38
2022-11-22T07:38:04.990Z,13.68
2022-11-22T07:41:26.814Z,12.07
2022-11-22T07:44:48.953Z,14.63
2022-11-22T07:48:14.861Z,11.70
2022-11-22T07:51:38.238Z,8.82
2022-11-22T07:55:03.292Z,12.80
2022-11-22T07:58:27.029Z,16.20
2022-11-22T08:01:49.020Z,11.82
2022-11-22T08:05:11.138Z,10.30
2022-11-22T08:08:35.200Z,10.75
2022-11-22T08:11:57.340Z,11.70
2022-11-22T08:15:19.634Z,12.60
2022-11-22T08:18:42.863Z,13.02
2022-11-22T08:22:05.060Z,11.93
2022-11-22T08:25:28.550Z,14.85
2022-11-22T08:28:50.577Z,12.45
2022-11-22T08:32:12.890Z,15.43
2022-11-22T08:35:35.205Z,12.45
2022-11-22T08:38:57.514Z,16.95
2022-11-22T08:42:20.559Z,9.85
2022-11-22T08:45:42.715Z,10.70
2022-11-22T08:49:06.603Z,8.82
2022-11-22T08:52:28.844Z,8.57
2022-11-22T08:55:51.878Z,9.02
2022-11-22T08:59:15.048Z,9.88
2022-11-22T09:02:36.961Z,7.82
2022-11-22T09:09:45.435Z,8.57
2022-11-22T09:13:07.700Z,8.90
2022-11-22T09:16:33.037Z,11.70
2022-11-22T09:19:54.852Z,8.85
2022-11-22T09:23:16.960Z,12.52
2022-11-22T09:26:39.210Z,11.05
2022-11-22T09:30:00.948Z,12.07
2022-11-22T09:33:24.594Z,13.23
2022-11-22T09:36:46.494Z,15.02
2022-11-22T09:40:10.205Z,15.95
2022-11-22T09:43:44.967Z,12.25
2022-11-22T09:47:18.725Z,12.52
2022-11-22T09:50:50.185Z,17.58
2022-11-22T09:54:16.766Z,14.25
2022-11-22T09:57:43.978Z,12.77
2022-11-22T10:01:13.224Z,15.45
2022-11-22T10:04:42.308Z,17.35
2022-11-22T10:08:14.438Z,19.00
2022-11-22T10:11:41.730Z,21.80
2022-11-22T10:15:09.810Z,17.83
2022-11-22T10:18:39.930Z,22.13
2022-11-22T10:22:01.947Z,14.52
2022-11-22T10:25:35.490Z,28.33
2022-11-22T10:29:11.009Z,29.02
2022-11-22T10:32:40.087Z,25.08
2022-11-22T10:36:16.804Z,17.63
2022-11-22T10:39:59.960Z,22.33
2022-11-22T10:43:36.678Z,25.80
2022-11-22T10:47:06.655Z,20.52
2022-11-22T10:50:36.811Z,21.88
2022-11-22T10:54:13.711Z,24.65
2022-11-22T10:57:42.986Z,26.58
2022-11-22T11:01:12.528Z,20.70
2022-11-22T11:47:32.487Z,28.83
2022-11-22T11:50:54.505Z,28.00
2022-11-22T11:54:20.074Z,22.70
2022-11-22T11:57:45.916Z,23.65
2022-11-22T12:01:15.340Z,16.58
2022-11-22T12:04:49.911Z,19.38
2022-11-22T12:08:30.566Z,21.10
2022-11-22T12:11:54.096Z,17.45
2022-11-22T12:15:21.346Z,14.43
2022-11-22T12:18:51.305Z,14.80
2022-11-22T12:22:42.628Z,16.13
2022-11-22T12:26:03.596Z,19.38
2022-11-22T12:29:25.674Z,13.52
2022-11-22T12:32:55.910Z,10.35
2022-11-22T12:36:24.299Z,15.05
2022-11-22T12:39:51.262Z,11.95
2022-11-22T12:43:18.631Z,14.38
2022-11-22T12:46:45.839Z,14.98
2022-11-22T12:55:02.314Z,12.95
2022-11-22T12:58:34.584Z,19.80
2022-11-22T13:02:06.403Z,18.15
2022-11-22T13:05:31.671Z,20.42
2022-11-22T13:09:04.089Z,17.63
2022-11-22T13:12:33.129Z,30.30
2022-11-22T13:15:57.706Z,14.27
2022-11-22T13:19:25.139Z,15.52
2022-11-22T13:22:58.011Z,14.75
2022-11-22T13:26:30.788Z,19.13
2022-11-22T13:29:57.316Z,25.48
2022-11-22T13:33:30.315Z,31.25
2022-11-22T13:36:55.635Z,60.30
2022-11-22T13:40:30.093Z,38.10
2022-11-22T13:43:55.545Z,21.63
2022-11-22T13:47:44.252Z,22.52
2022-11-22T13:51:09.803Z,21.88
2022-11-22T13:54:57.299Z,26.50
2022-11-22T13:58:55.726Z,18.65
2022-11-22T14:02:24.315Z,24.25
2022-11-22T14:05:51.367Z,20.73
2022-11-22T14:09:31.541Z,16.13
2022-11-22T14:13:12.488Z,22.10
2022-11-22T14:16:51.692Z,19.58
2022-11-22T14:24:00.048Z,10.77
2022-11-22T14:27:36.002Z,12.95
2022-11-22T14:30:59.104Z,12.13
2022-11-22T14:34:23.835Z,16.50
2022-11-22T14:37:48.274Z,13.32
2022-11-22T14:41:43.866Z,15.07
2022-11-22T14:45:21.532Z,15.10
2022-11-22T14:48:51.339Z,13.77
2022-11-22T14:52:21.836Z,13.50
2022-11-22T14:55:44.236Z,10.90
2022-11-22T14:59:24.002Z,8.10
2022-11-22T15:09:16.474Z,7.22
2022-11-22T15:10:45.329Z,8.73
2022-11-22T15:14:56.854Z,8.00
2022-11-22T16:00:01.067Z,10.40
2022-11-22T16:03:27.061Z,9.27
2022-11-22T16:06:48.773Z,6.28
2022-11-22T16:10:20.976Z,6.97
2022-11-22T16:13:43.181Z,9.20
2022-11-22T16:17:24.333Z,12.88
2022-11-22T16:21:01.600Z,12.45
2022-11-22T16:24:28.578Z,10.05
2022-11-22T16:27:50.661Z,10.75
2022-11-22T16:31:22.834Z,10.15
2022-11-22T16:34:47.049Z,12.30
2022-11-22T16:38:09.312Z,12.40
2022-11-22T16:41:31.585Z,11.65
2022-11-22T16:44:53.776Z,11.25
2022-11-22T16:48:31.424Z,13.68
2022-11-22T16:51:55.386Z,13.75
2022-11-22T16:55:18.094Z,11.32
2022-11-22T16:58:40.135Z,12.80
2022-11-22T17:02:02.126Z,10.80
2022-11-22T17:05:24.319Z,15.52
2022-11-22T17:08:48.580Z,19.73
2022-11-22T17:12:15.125Z,17.25
2022-11-22T17:15:38.125Z,20.27
2022-11-22T17:19:00.281Z,17.77
2022-11-22T17:22:22.668Z,15.50
2022-11-22T17:25:45.818Z,11.98
2022-11-22T17:29:11.136Z,11.27
2022-11-22T17:32:40.795Z,12.60
2022-11-22T17:36:02.991Z,13.82
2022-11-22T17:39:25.258Z,16.10
2022-11-22T17:42:49.033Z,11.02
2022-11-22T17:46:10.813Z,18.63
2022-11-22T17:49:35.480Z,22.00
2022-11-22T17:52:57.435Z,15.65
2022-11-22T17:56:19.902Z,13.57
2022-11-22T17:59:43.863Z,13.57
2022-11-22T18:03:08.248Z,16.02
2022-11-22T18:06:31.568Z,14.25
2022-11-22T18:09:53.583Z,20.00
2022-11-22T18:13:22.847Z,22.85
2022-11-22T18:16:46.061Z,13.93
2022-11-22T18:20:09.040Z,15.25
2022-11-22T18:23:34.441Z,14.43
2022-11-22T18:26:56.388Z,16.65
2022-11-22T18:30:18.552Z,15.75
2022-11-22T18:33:41.826Z,12.20
2022-11-22T18:37:04.896Z,15.35
2022-11-22T18:40:27.226Z,16.45
2022-11-22T18:43:49.610Z,15.48
2022-11-22T18:47:11.392Z,11.90
2022-11-22T18:50:35.065Z,15.68
2022-11-22T18:53:56.961Z,14.68
2022-11-22T18:57:19.011Z,12.60
2022-11-22T19:00:43.068Z,12.20
2022-11-22T19:04:04.912Z,9.38
2022-11-22T19:07:28.382Z,14.20
2022-11-22T19:10:57.239Z,18.98
2022-11-22T19:14:19.551Z,16.35
2022-11-22T19:17:41.126Z,16.73
2022-11-22T19:21:05.721Z,28.13
2022-11-22T19:24:29.542Z,19.50
2022-11-22T19:27:51.718Z,12.57
2022-11-22T19:31:17.612Z,16.45
2022-11-22T19:34:39.703Z,12.13
2022-11-22T19:38:01.181Z,12.43
2022-11-22T19:41:25.823Z,11.57
2022-11-22T19:44:50.188Z,11.63
2022-11-22T19:48:12.101Z,13.57
2022-11-22T19:51:34.707Z,14.55
2022-11-22T19:54:57.093Z,14.75
2022-11-22T19:58:20.535Z,12.90
2022-11-22T20:01:44.033Z,15.82
2022-11-22T20:05:06.689Z,18.25
2022-11-22T20:08:28.945Z,14.07
2022-11-22T20:11:50.810Z,10.43
2022-11-22T20:15:14.372Z,17.38
2022-11-22T20:18:36.767Z,15.93
2022-11-22T20:21:58.643Z,19.38
2022-11-22T20:25:20.204Z,13.52
2022-11-22T20:28:43.822Z,18.48
2022-11-22T20:32:07.482Z,14.73
2022-11-22T20:35:29.282Z,16.17
2022-11-22T20:38:52.059Z,18.42
2022-11-22T20:42:33.509Z,15.82
2022-11-22T20:46:02.788Z,18.55
2022-11-22T20:49:28.319Z,17.35
2022-11-22T20:52:50.687Z,17.88
2022-11-22T20:56:14.099Z,16.42
2022-11-22T20:59:36.032Z,14.60
2022-11-22T21:02:58.216Z,19.60
2022-11-22T21:06:23.282Z,17.05
2022-11-22T21:09:49.904Z,21.88
2022-11-22T21:13:11.976Z,17.83
2022-11-22T21:16:33.879Z,20.67
2022-11-22T21:19:55.950Z,14.27
2022-11-22T21:23:19.445Z,16.70
2022-11-22T21:26:41.890Z,19.83
2022-11-22T21:30:04.034Z,13.57
2022-11-22T21:33:26.787Z,13.25
2022-11-22T21:36:48.857Z,17.33
2022-11-22T21:40:14.043Z,12.13
2022-11-22T21:43:36.735Z,15.70
2022-11-22T21:46:58.738Z,16.00
2022-11-22T21:50:23.696Z,13.07
2022-11-22T21:53:46.716Z,13.25
2022-11-22T21:57:10.400Z,18.65
2022-11-22T22:00:32.658Z,12.60
2022-11-22T22:03:54.954Z,10.32
2022-11-22T22:07:36.691Z,12.50
2022-11-22T22:11:01.161Z,7.35
2022-11-22T22:14:24.285Z,16.48
2022-11-22T22:17:46.249Z,11.32
2022-11-22T22:21:10.629Z,12.43
2022-11-22T22:24:35.246Z,9.63
2022-11-22T22:27:58.193Z,12.98
2022-11-22T22:31:23.143Z,17.05
2022-11-22T22:34:47.765Z,12.15
2022-11-22T22:38:09.506Z,7.53
2022-11-22T22:41:31.429Z,11.85
2022-11-22T22:44:56.492Z,13.50
2022-11-22T22:48:20.390Z,8.00
2022-11-22T22:51:42.191Z,10.02
2022-11-22T22:55:03.900Z,9.50
2022-11-22T22:58:26.057Z,10.63
2022-11-22T23:01:49.140Z,14.48
2022-11-22T23:05:12.878Z,12.55
2022-11-22T23:08:34.770Z,5.45
2022-11-22T23:12:12.135Z,9.55
2022-11-22T23:15:56.917Z,11.13
2022-11-22T23:19:16.139Z,12.45
2022-11-22T23:22:39.201Z,12.15
2022-11-22T23:26:03.350Z,10.50
2022-11-22T23:29:25.135Z,16.25
2022-11-22T23:32:46.745Z,14.13
2022-11-22T23:36:11.232Z,13.90
2022-11-22T23:39:36.583Z,15.55
2022-11-22T23:42:59.124Z,8.50
2022-11-22T23:46:21.118Z,9.85
2022-11-22T23:49:43.228Z,12.45
2022-11-22T23:53:04.799Z,12.63
2022-11-22T23:56:28.790Z,10.52
2022-11-22T23:59:50.902Z,10.30
